Time;durP1;ratioP1;P1;durP2;ratioP2;P2;SDS_P1;SDS_P2;PMS_P1;PMS_P2;Temp;Humidity;BMP_temperature;BMP_pressure;BME280_temperature;BME280_humidity;BME280_pressure;Samples;Min_cycle;Max_cycle;Signal;HPM_P1;HPM_P2
2021/08/19 00:01:00;;;;;;;3.80;3.50;;;18.10;96.50;;;;;;2089540;28;20715;-68
2021/08/19 00:02:01;;;;;;;4.15;3.75;;;18.10;96.40;;;;;;2080341;28;20029;-69
2021/08/19 00:03:03;;;;;;;5.70;3.80;;;18.10;96.50;;;;;;2079958;28;20029;-68
2021/08/19 00:04:03;;;;;;;5.63;3.67;;;18.10;96.50;;;;;;2088655;28;20025;-70
2021/08/19 00:05:04;;;;;;;5.70;3.83;;;18.10;96.30;;;;;;2088626;28;20032;-70
2021/08/19 00:06:05;;;;;;;5.78;4.03;;;18.10;96.50;;;;;;2088185;28;20483;-71
2021/08/19 00:07:05;;;;;;;4.30;3.90;;;18.10;96.70;;;;;;2079698;28;20105;-70
2021/08/19 00:08:06;;;;;;;4.22;3.80;;;18.10;96.50;;;;;;2063006;28;20507;-71
2021/08/19 00:09:07;;;;;;;6.53;3.72;;;18.10;96.50;;;;;;2071135;28;20476;-71
2021/08/19 00:10:10;;;;;;;4.32;3.90;;;18.10;96.40;;;;;;2088380;28;20104;-71
2021/08/19 00:11:12;;;;;;;5.50;4.10;;;18.10;96.20;;;;;;2079542;28;20035;-71
2021/08/19 00:12:12;;;;;;;4.55;3.70;;;18.10;96.30;;;;;;2071742;28;20026;-70
2021/08/19 00:13:13;;;;;;;4.07;3.78;;;18.10;96.30;;;;;;2081157;28;20044;-70
2021/08/19 00:14:13;;;;;;;4.07;3.63;;;18.10;96.30;;;;;;2090566;28;20088;-71
2021/08/19 00:15:14;;;;;;;7.07;3.97;;;18.10;96.20;;;;;;2090731;28;20060;-71
2021/08/19 00:16:15;;;;;;;4.20;3.78;;;18.10;96.30;;;;;;2089946;28;20052;-71
2021/08/19 00:17:15;;;;;;;6.30;4.20;;;18.10;96.50;;;;;;2089505;28;20040;-71
2021/08/19 00:18:16;;;;;;;4.45;4.00;;;18.10;96.40;;;;;;2090296;28;20051;-70
2021/08/19 00:19:17;;;;;;;4.28;3.88;;;18.10;96.30;;;;;;2089717;28;20025;-71
2021/08/19 00:20:18;;;;;;;4.20;3.80;;;18.10;96.40;;;;;;2080536;28;20117;-71
2021/08/19 00:21:18;;;;;;;4.35;3.75;;;18.10;96.50;;;;;;2079524;28;20233;-70
2021/08/19 00:22:19;;;;;;;4.18;3.85;;;18.10;96.50;;;;;;2088495;28;21725;-70
2021/08/19 00:23:19;;;;;;;6.03;3.97;;;18.10;96.50;;;;;;2088563;28;20033;-70
2021/08/19 00:24:20;;;;;;;5.03;3.90;;;18.10;96.60;;;;;;2088456;28;20119;-71
2021/08/19 00:25:21;;;;;;;4.28;3.88;;;18.10;96.70;;;;;;2079509;28;20032;-71
2021/08/19 00:26:22;;;;;;;4.50;4.10;;;18.10;96.70;;;;;;2079798;28;20064;-71
2021/08/19 00:27:22;;;;;;;4.97;4.05;;;18.10;96.60;;;;;;2087950;28;20033;-71
2021/08/19 00:28:23;;;;;;;6.95;3.83;;;18.10;96.60;;;;;;2088361;28;20480;-71
2021/08/19 00:29:23;;;;;;;4.00;3.67;;;18.10;96.70;;;;;;2088197;28;20029;-71
2021/08/19 00:30:24;;;;;;;6.43;4.00;;;18.10;96.90;;;;;;2088483;28;20029;-71
2021/08/19 00:31:25;;;;;;;4.38;3.97;;;18.10;96.70;;;;;;2088469;28;20033;-71
2021/08/19 00:32:25;;;;;;;8.52;4.28;;;18.00;96.70;;;;;;2071450;28;20029;-71
2021/08/19 00:33:26;;;;;;;4.45;4.05;;;18.10;97.00;;;;;;2071283;28;20030;-71
2021/08/19 00:34:26;;;;;;;5.65;4.40;;;18.10;96.80;;;;;;2079380;28;20113;-71
2021/08/19 00:35:27;;;;;;;5.75;4.40;;;18.10;96.90;;;;;;2079575;28;20085;-71
2021/08/19 00:36:28;;;;;;;5.18;4.03;;;18.10;96.70;;;;;;2088509;28;20082;-71
2021/08/19 00:37:28;;;;;;;5.22;4.13;;;18.10;96.70;;;;;;2088240;28;20104;-71
2021/08/19 00:38:29;;;;;;;4.45;4.05;;;18.00;96.70;;;;;;2079828;28;20091;-71
2021/08/19 00:39:30;;;;;;;5.95;4.13;;;18.10;96.80;;;;;;2071154;28;20026;-70
2021/08/19 00:40:32;;;;;;;6.93;4.10;;;18.10;96.90;;;;;;2071626;28;20030;-71
2021/08/19 00:41:35;;;;;;;4.93;4.00;;;18.00;96.80;;;;;;2079673;28;20036;-71
2021/08/19 00:42:35;;;;;;;5.30;4.18;;;18.10;96.90;;;;;;2088204;28;20036;-71
2021/08/19 00:43:36;;;;;;;5.22;4.25;;;18.10;97.00;;;;;;2088359;28;20491;-71
2021/08/19 00:44:39;;;;;;;4.85;4.22;;;18.10;96.70;;;;;;2088471;28;20036;-70
2021/08/19 00:45:39;;;;;;;4.40;4.00;;;18.00;96.70;;;;;;2079287;28;20037;-70
2021/08/19 00:46:42;;;;;;;4.85;4.00;;;18.10;96.80;;;;;;2079671;28;20337;-71
2021/08/19 00:47:43;;;;;;;5.70;3.97;;;18.00;96.70;;;;;;2088120;28;20036;-70
2021/08/19 00:48:44;;;;;;;4.78;4.13;;;18.10;96.50;;;;;;2079224;28;20056;-70
2021/08/19 00:49:45;;;;;;;4.70;4.30;;;18.00;96.60;;;;;;2079110;28;20030;-70
2021/08/19 00:50:45;;;;;;;4.43;3.95;;;18.10;96.70;;;;;;2088189;28;20892;-70
2021/08/19 00:51:48;;;;;;;5.63;4.05;;;18.10;97.00;;;;;;2079839;28;20033;-70
2021/08/19 00:52:49;;;;;;;4.70;4.20;;;18.10;96.30;;;;;;2079964;28;20053;-70
2021/08/19 00:53:49;;;;;;;4.75;4.35;;;18.10;96.50;;;;;;2088539;28;20033;-70
2021/08/19 00:54:50;;;;;;;5.65;3.92;;;18.10;96.40;;;;;;2088381;28;20025;-71
2021/08/19 00:55:51;;;;;;;5.55;4.20;;;18.10;96.70;;;;;;2080719;28;20092;-70
2021/08/19 00:56:59;;;;;;;5.45;4.05;;;18.10;96.60;;;;;;2072655;28;20061;-70
2021/08/19 00:58:00;;;;;;;5.38;4.20;;;18.10;96.50;;;;;;2080596;28;20025;-70
2021/08/19 00:59:02;;;;;;;5.72;3.92;;;18.10;96.50;;;;;;2072562;28;20053;-71
2021/08/19 01:00:03;;;;;;;4.50;4.10;;;18.10;96.40;;;;;;2081176;28;20036;-71
2021/08/19 01:01:04;;;;;;;4.30;3.90;;;18.10;96.40;;;;;;2089972;28;20025;-70
2021/08/19 01:02:09;;;;;;;4.93;4.43;;;18.10;96.30;;;;;;2090012;28;20017;-70
2021/08/19 01:03:11;;;;;;;4.50;4.10;;;18.10;96.30;;;;;;2081355;28;20040;-70
2021/08/19 01:04:12;;;;;;;5.75;4.40;;;18.10;96.40;;;;;;2080824;28;20033;-70
2021/08/19 01:05:15;;;;;;;5.97;4.15;;;18.00;96.00;;;;;;2089227;28;20587;-70
2021/08/19 01:06:16;;;;;;;5.10;4.43;;;18.10;96.00;;;;;;2089328;28;20017;-70
2021/08/19 01:07:17;;;;;;;4.40;4.00;;;18.10;95.80;;;;;;2088450;28;20049;-71
2021/08/19 01:08:18;;;;;;;4.30;3.90;;;18.10;95.90;;;;;;2080773;28;20061;-70
2021/08/19 01:09:18;;;;;;;4.80;4.30;;;18.10;95.90;;;;;;2080202;28;20040;-70
2021/08/19 01:10:19;;;;;;;5.10;4.45;;;18.10;95.90;;;;;;2080403;28;20048;-70
2021/08/19 01:11:20;;;;;;;5.63;4.28;;;18.10;95.90;;;;;;2080026;28;20044;-70
2021/08/19 01:12:21;;;;;;;4.90;4.43;;;18.10;95.70;;;;;;2080577;28;20045;-70
2021/08/19 01:13:22;;;;;;;4.50;4.03;;;18.10;95.80;;;;;;2080981;28;20141;-70
2021/08/19 01:14:22;;;;;;;4.80;4.30;;;18.10;95.80;;;;;;2089773;28;20056;-71
2021/08/19 01:15:24;;;;;;;4.47;3.95;;;18.00;95.70;;;;;;2089624;28;20116;-70
2021/08/19 01:16:24;;;;;;;4.47;4.07;;;18.10;95.80;;;;;;2081004;28;20729;-70
2021/08/19 01:17:28;;;;;;;4.40;4.00;;;18.00;95.90;;;;;;2080437;28;20034;-70
2021/08/19 01:18:44;;;;;;;4.50;4.10;;;18.10;96.20;;;;;;2080704;28;20036;-71
2021/08/19 01:19:45;;;;;;;6.05;4.10;;;18.00;96.00;;;;;;2082933;28;20029;-70
2021/08/19 01:20:46;;;;;;;4.47;4.07;;;18.10;96.20;;;;;;2089885;28;20440;-71
2021/08/19 01:21:51;;;;;;;4.72;4.07;;;18.00;96.20;;;;;;2089898;28;20075;-71
2021/08/19 01:22:52;;;;;;;5.22;4.30;;;18.00;95.80;;;;;;2089709;28;20044;-70
2021/08/19 01:23:53;;;;;;;4.70;4.15;;;18.00;95.70;;;;;;2080996;28;20025;-70
2021/08/19 01:24:54;;;;;;;4.45;4.05;;;18.00;95.70;;;;;;2080649;28;20034;-70
2021/08/19 01:25:54;;;;;;;4.40;4.00;;;18.00;95.90;;;;;;2089723;28;20032;-70
2021/08/19 01:26:55;;;;;;;4.93;4.35;;;18.00;96.00;;;;;;2089527;28;20060;-70
2021/08/19 01:27:56;;;;;;;4.30;3.90;;;18.00;96.10;;;;;;2080597;28;20112;-70
2021/08/19 01:28:57;;;;;;;4.82;4.03;;;18.00;95.70;;;;;;2080502;28;20022;-70
2021/08/19 01:29:57;;;;;;;4.85;4.35;;;18.00;95.80;;;;;;2089742;28;20025;-70
2021/08/19 01:30:58;;;;;;;6.88;4.30;;;18.00;95.70;;;;;;2080971;28;20469;-70
2021/08/19 01:32:02;;;;;;;5.15;4.25;;;18.00;95.70;;;;;;2080620;28;20033;-70
2021/08/19 01:33:03;;;;;;;4.88;4.40;;;18.00;95.80;;;;;;2089782;28;20033;-70
2021/08/19 01:34:04;;;;;;;4.22;3.83;;;18.00;96.00;;;;;;2089723;28;20032;-70
2021/08/19 01:35:05;;;;;;;4.78;4.20;;;18.00;95.90;;;;;;2089646;28;20036;-70
2021/08/19 01:36:05;;;;;;;5.22;4.00;;;18.00;96.10;;;;;;2089713;28;20106;-70
2021/08/19 01:37:07;;;;;;;4.70;4.20;;;18.00;96.10;;;;;;2089838;28;20037;-71
2021/08/19 01:38:07;;;;;;;4.65;4.25;;;18.00;96.20;;;;;;2089398;28;20432;-70
2021/08/19 01:39:08;;;;;;;5.50;4.22;;;17.90;96.20;;;;;;2080418;28;20051;-70
2021/08/19 01:40:09;;;;;;;4.82;4.43;;;18.00;96.40;;;;;;2080739;28;20485;-70
2021/08/19 01:41:10;;;;;;;4.55;4.03;;;17.90;96.10;;;;;;2089781;28;20483;-70
2021/08/19 01:42:10;;;;;;;5.22;4.35;;;17.90;96.20;;;;;;2089587;28;20037;-70
2021/08/19 01:43:11;;;;;;;5.43;4.40;;;17.90;96.10;;;;;;2089570;28;20044;-70
2021/08/19 01:44:12;;;;;;;4.97;4.47;;;17.90;96.30;;;;;;2080982;28;20025;-70
2021/08/19 01:45:15;;;;;;;4.43;4.00;;;17.90;96.40;;;;;;2080998;28;20068;-71
2021/08/19 01:46:18;;;;;;;4.70;4.20;;;17.90;96.50;;;;;;2089622;28;20045;-70
2021/08/19 01:47:21;;;;;;;5.65;4.65;;;17.90;96.50;;;;;;2089314;28;20028;-70
2021/08/19 01:48:22;;;;;;;4.68;4.22;;;17.90;96.50;;;;;;2089526;28;20488;-70
2021/08/19 01:49:23;;;;;;;4.63;4.20;;;17.90;96.40;;;;;;2080292;28;20034;-71
2021/08/19 01:50:23;;;;;;;5.15;4.20;;;17.90;96.50;;;;;;2065015;28;20037;-70
2021/08/19 01:51:24;;;;;;;5.07;4.57;;;17.90;96.70;;;;;;2073074;28;20164;-69
2021/08/19 01:52:25;;;;;;;6.30;4.45;;;17.90;96.50;;;;;;2072611;28;20131;-70
2021/08/19 01:53:26;;;;;;;5.07;4.57;;;17.90;96.50;;;;;;2080704;28;20026;-70
2021/08/19 01:54:27;;;;;;;4.60;4.13;;;17.90;96.70;;;;;;2080434;28;20034;-69
2021/08/19 01:55:27;;;;;;;4.80;4.30;;;17.90;96.70;;;;;;2080606;28;20036;-69
2021/08/19 01:56:28;;;;;;;6.22;4.60;;;17.80;97.00;;;;;;2089305;28;20060;-70
2021/08/19 01:57:28;;;;;;;4.88;4.25;;;17.90;97.10;;;;;;2088968;28;20108;-69
2021/08/19 01:58:29;;;;;;;4.80;4.40;;;17.90;97.00;;;;;;2089411;28;20029;-69
2021/08/19 01:59:31;;;;;;;4.40;4.00;;;17.80;97.00;;;;;;2088898;28;20029;-69
2021/08/19 02:00:32;;;;;;;5.53;4.80;;;17.90;97.10;;;;;;2089246;28;20096;-70
2021/08/19 02:01:32;;;;;;;5.78;4.43;;;17.80;97.00;;;;;;2089297;28;20130;-70
2021/08/19 02:02:33;;;;;;;5.18;4.68;;;17.80;97.10;;;;;;2080512;28;20102;-70
2021/08/19 02:03:34;;;;;;;4.90;4.40;;;17.80;97.10;;;;;;2080297;28;20033;-69
2021/08/19 02:04:34;;;;;;;5.13;4.60;;;17.80;97.20;;;;;;2089235;28;20040;-70
2021/08/19 02:05:39;;;;;;;5.50;4.32;;;17.80;97.20;;;;;;2089383;28;20036;-69
2021/08/19 02:06:40;;;;;;;5.03;4.30;;;17.80;97.30;;;;;;2088884;28;20039;-70
2021/08/19 02:07:40;;;;;;;5.82;4.40;;;17.80;97.40;;;;;;2088362;28;20029;-69
2021/08/19 02:08:41;;;;;;;5.35;4.70;;;17.80;97.60;;;;;;2089046;28;20044;-69
2021/08/19 02:09:42;;;;;;;4.80;4.40;;;17.80;97.40;;;;;;2089639;28;20029;-70
2021/08/19 02:10:43;;;;;;;5.20;4.70;;;17.80;97.30;;;;;;2089152;28;20025;-70
2021/08/19 02:11:44;;;;;;;5.28;4.78;;;17.80;97.50;;;;;;2089487;28;20666;-69
2021/08/19 02:12:45;;;;;;;5.18;4.63;;;17.70;97.60;;;;;;2080616;28;20037;-69
2021/08/19 02:13:45;;;;;;;4.95;4.55;;;17.80;97.60;;;;;;2072105;28;20030;-70
2021/08/19 02:14:46;;;;;;;5.28;4.78;;;17.80;97.40;;;;;;2080436;28;20033;-70
2021/08/19 02:15:46;;;;;;;5.53;4.70;;;17.80;97.50;;;;;;2089242;28;20036;-70
2021/08/19 02:16:47;;;;;;;5.30;4.80;;;17.80;97.70;;;;;;2089479;28;20037;-70
2021/08/19 02:17:48;;;;;;;4.93;4.40;;;17.80;97.70;;;;;;2088773;28;20468;-70
2021/08/19 02:18:48;;;;;;;5.35;4.82;;;17.80;97.70;;;;;;2089127;28;20112;-69
2021/08/19 02:19:49;;;;;;;5.55;4.63;;;17.80;97.50;;;;;;2089170;28;20602;-70
2021/08/19 02:20:49;;;;;;;5.13;4.63;;;17.80;97.50;;;;;;2089291;28;20867;-69
2021/08/19 02:21:50;;;;;;;5.22;4.50;;;17.70;97.50;;;;;;2089137;28;20124;-69
2021/08/19 02:22:50;;;;;;;5.07;4.60;;;17.70;97.90;;;;;;2080266;28;20041;-70
2021/08/19 02:23:51;;;;;;;5.20;4.65;;;17.70;97.60;;;;;;2080442;28;20041;-69
2021/08/19 02:24:52;;;;;;;5.72;4.65;;;17.70;97.40;;;;;;2088875;28;20033;-70
2021/08/19 02:25:53;;;;;;;5.03;4.53;;;17.70;97.40;;;;;;2080264;28;20540;-70
2021/08/19 02:26:53;;;;;;;5.18;4.50;;;17.70;97.50;;;;;;2072160;28;20052;-70
2021/08/19 02:27:54;;;;;;;5.20;4.70;;;17.70;97.70;;;;;;2079738;28;20100;-70
2021/08/19 02:28:55;;;;;;;6.15;4.70;;;17.70;97.60;;;;;;2088762;28;20078;-69
2021/08/19 02:29:55;;;;;;;6.57;5.10;;;17.70;97.30;;;;;;2088814;28;20484;-70
2021/08/19 02:30:56;;;;;;;4.88;4.45;;;17.70;97.40;;;;;;2080290;28;20396;-69
2021/08/19 02:31:57;;;;;;;5.47;4.97;;;17.70;97.50;;;;;;2080131;28;20025;-69
2021/08/19 02:32:57;;;;;;;5.38;4.88;;;17.70;97.20;;;;;;2080206;28;20156;-70
2021/08/19 02:33:58;;;;;;;5.65;4.65;;;17.70;97.10;;;;;;2080247;28;20041;-70
2021/08/19 02:34:58;;;;;;;7.32;4.68;;;17.70;97.10;;;;;;2088982;28;20032;-69
2021/08/19 02:35:59;;;;;;;7.47;4.43;;;17.70;97.00;;;;;;2088980;28;20037;-69
2021/08/19 02:37:00;;;;;;;5.00;4.50;;;17.70;97.00;;;;;;2089026;28;20138;-70
2021/08/19 02:38:04;;;;;;;6.45;4.90;;;17.70;97.10;;;;;;2088608;28;20492;-69
2021/08/19 02:39:05;;;;;;;5.20;4.55;;;17.70;97.10;;;;;;2088692;28;20025;-69
2021/08/19 02:40:06;;;;;;;5.20;4.70;;;17.70;97.10;;;;;;2079833;28;20532;-69
2021/08/19 02:41:07;;;;;;;5.50;4.70;;;17.70;97.20;;;;;;2072093;28;20029;-70
2021/08/19 02:42:08;;;;;;;5.45;4.95;;;17.70;97.30;;;;;;2080108;28;20033;-69
2021/08/19 02:43:09;;;;;;;5.40;4.70;;;17.70;97.10;;;;;;2080115;28;20067;-70
2021/08/19 02:44:09;;;;;;;5.35;4.78;;;17.70;96.90;;;;;;2080046;28;20041;-69
2021/08/19 02:45:11;;;;;;;9.18;4.93;;;17.70;97.00;;;;;;2089022;28;20060;-70
2021/08/19 02:46:12;;;;;;;5.55;4.65;;;17.60;97.10;;;;;;2088896;28;20044;-69
2021/08/19 02:47:13;;;;;;;6.13;5.10;;;17.60;97.00;;;;;;2088536;28;20025;-70
2021/08/19 02:48:13;;;;;;;5.40;4.80;;;17.60;97.00;;;;;;2080242;28;20041;-69
2021/08/19 02:49:14;;;;;;;5.63;4.90;;;17.60;96.90;;;;;;2080035;28;20067;-69
2021/08/19 02:50:16;;;;;;;5.28;4.78;;;17.60;97.00;;;;;;2088758;28;20548;-69
2021/08/19 02:51:16;;;;;;;5.00;4.50;;;17.60;97.00;;;;;;2088843;28;20041;-70
2021/08/19 02:52:17;;;;;;;4.90;4.50;;;17.60;97.10;;;;;;2089035;28;20033;-69
2021/08/19 02:53:18;;;;;;;5.65;4.85;;;17.60;97.10;;;;;;2081005;28;20034;-70
2021/08/19 02:54:18;;;;;;;5.47;4.97;;;17.60;97.20;;;;;;2083683;28;20029;-69
2021/08/19 02:55:19;;;;;;;5.10;4.60;;;17.60;97.10;;;;;;2090410;28;20028;-69
2021/08/19 02:56:19;;;;;;;5.72;4.57;;;17.60;97.00;;;;;;2090694;28;20033;-70
2021/08/19 02:57:20;;;;;;;6.13;5.05;;;17.60;97.20;;;;;;2081905;28;20060;-69
2021/08/19 02:58:20;;;;;;;5.43;4.93;;;17.60;97.20;;;;;;2082239;28;20025;-69
2021/08/19 02:59:21;;;;;;;6.38;4.90;;;17.60;97.30;;;;;;2090457;28;20020;-69
2021/08/19 03:00:21;;;;;;;5.90;4.90;;;17.60;97.30;;;;;;2090461;28;20033;-70
2021/08/19 03:01:22;;;;;;;5.60;5.10;;;17.60;97.20;;;;;;2089182;28;20025;-70
2021/08/19 03:02:23;;;;;;;6.07;5.10;;;17.60;97.00;;;;;;2088767;28;20056;-69
2021/08/19 03:03:23;;;;;;;5.30;4.80;;;17.60;97.10;;;;;;2088844;28;20400;-70
2021/08/19 03:04:24;;;;;;;6.18;5.20;;;17.60;97.10;;;;;;2088651;28;20506;-70
2021/08/19 03:05:24;;;;;;;5.95;4.93;;;17.60;96.90;;;;;;2088960;28;20503;-70
2021/08/19 03:06:25;;;;;;;5.65;4.90;;;17.60;97.00;;;;;;2088939;28;20745;-69
2021/08/19 03:07:26;;;;;;;5.53;5.03;;;17.60;96.90;;;;;;2088317;28;20548;-69
2021/08/19 03:08:26;;;;;;;6.43;5.25;;;17.60;97.00;;;;;;2088924;28;20065;-70
2021/08/19 03:09:27;;;;;;;5.45;4.93;;;17.60;97.10;;;;;;2088519;28;20029;-70
2021/08/19 03:10:27;;;;;;;5.20;4.70;;;17.60;97.10;;;;;;2088575;28;20063;-70
2021/08/19 03:11:28;;;;;;;5.15;4.65;;;17.60;97.10;;;;;;2088859;28;20028;-70
2021/08/19 03:12:29;;;;;;;5.85;4.78;;;17.60;97.30;;;;;;2088950;28;20032;-70
2021/08/19 03:13:29;;;;;;;5.13;4.70;;;17.60;97.20;;;;;;2088789;28;20029;-70
2021/08/19 03:14:31;;;;;;;6.05;4.90;;;17.60;97.30;;;;;;2088852;28;20154;-70
2021/08/19 03:15:31;;;;;;;5.78;5.18;;;17.60;97.30;;;;;;2080004;28;20112;-70
2021/08/19 03:16:32;;;;;;;6.78;5.22;;;17.60;97.10;;;;;;2080121;28;20033;-70
2021/08/19 03:17:33;;;;;;;5.88;5.28;;;17.60;97.10;;;;;;2088414;28;20036;-70
2021/08/19 03:18:34;;;;;;;5.82;4.93;;;17.60;97.10;;;;;;2087909;28;20476;-70
2021/08/19 03:19:36;;;;;;;6.38;5.20;;;17.60;97.20;;;;;;2088025;28;20032;-70
2021/08/19 03:20:36;;;;;;;5.95;5.35;;;17.60;97.10;;;;;;2079903;28;20105;-70
2021/08/19 03:21:37;;;;;;;6.20;5.20;;;17.50;97.10;;;;;;2079854;28;20052;-70
2021/08/19 03:22:38;;;;;;;6.32;4.93;;;17.60;97.20;;;;;;2088674;28;20040;-70
2021/08/19 03:23:39;;;;;;;5.90;5.07;;;17.60;97.30;;;;;;2071790;28;20025;-71
2021/08/19 03:24:41;;;;;;;5.45;4.95;;;17.60;97.40;;;;;;2071801;28;20473;-70
2021/08/19 03:25:42;;;;;;;5.45;4.95;;;17.60;97.30;;;;;;2079527;28;20033;-70
2021/08/19 03:26:42;;;;;;;6.15;4.82;;;17.60;97.20;;;;;;2079917;28;20115;-70
2021/08/19 03:27:43;;;;;;;5.80;5.20;;;17.60;97.20;;;;;;2079266;28;20116;-70
2021/08/19 03:28:44;;;;;;;6.35;5.13;;;17.60;97.40;;;;;;2088467;28;20025;-70
2021/08/19 03:29:45;;;;;;;5.45;4.60;;;17.60;97.60;;;;;;2088371;28;20099;-69
2021/08/19 03:30:46;;;;;;;5.35;4.82;;;17.60;97.90;;;;;;2088790;28;20574;-70
2021/08/19 03:31:47;;;;;;;5.57;5.07;;;17.50;97.50;;;;;;2079760;28;20029;-71
2021/08/19 03:32:47;;;;;;;5.65;5.03;;;17.50;97.50;;;;;;2079573;28;20388;-69
2021/08/19 03:33:48;;;;;;;5.30;4.80;;;17.60;97.70;;;;;;2088617;28;20099;-70
2021/08/19 03:34:49;;;;;;;7.22;5.20;;;17.50;97.50;;;;;;2088570;28;20102;-70
2021/08/19 03:35:49;;;;;;;5.20;4.70;;;17.60;97.50;;;;;;2088625;28;20032;-70
2021/08/19 03:36:50;;;;;;;5.70;4.65;;;17.50;97.50;;;;;;2088693;28;20036;-70
2021/08/19 03:37:51;;;;;;;5.65;4.95;;;17.60;97.50;;;;;;2088273;28;20074;-70
2021/08/19 03:38:52;;;;;;;6.50;5.20;;;17.60;97.50;;;;;;2079633;28;20116;-70
2021/08/19 03:39:53;;;;;;;5.43;4.80;;;17.50;97.20;;;;;;2079561;28;20031;-70
2021/08/19 03:40:53;;;;;;;5.20;4.70;;;17.60;97.30;;;;;;2088696;28;20028;-70
2021/08/19 03:41:54;;;;;;;6.25;5.05;;;17.60;97.20;;;;;;2088592;28;20061;-70
2021/08/19 03:42:54;;;;;;;6.53;4.97;;;17.60;97.20;;;;;;2088816;28;20025;-70
2021/08/19 03:43:55;;;;;;;5.70;4.97;;;17.50;97.20;;;;;;2088620;28;20484;-70
2021/08/19 03:44:56;;;;;;;6.88;5.03;;;17.50;97.30;;;;;;2088718;28;20036;-69
2021/08/19 03:45:56;;;;;;;5.57;5.07;;;17.50;97.20;;;;;;2088795;28;20024;-70
2021/08/19 03:46:58;;;;;;;5.82;4.95;;;17.50;97.20;;;;;;2088697;28;20477;-70
2021/08/19 03:47:59;;;;;;;5.88;4.88;;;17.50;97.10;;;;;;2088291;28;20111;-69
2021/08/19 03:48:59;;;;;;;5.47;4.85;;;17.50;97.10;;;;;;2079567;28;20511;-70
2021/08/19 03:50:00;;;;;;;6.10;4.93;;;17.50;97.20;;;;;;2079686;28;20513;-69
2021/08/19 03:51:01;;;;;;;4.95;4.38;;;17.50;97.30;;;;;;2088529;28;20029;-69
2021/08/19 03:52:01;;;;;;;5.38;4.88;;;17.50;97.40;;;;;;2088585;28;20039;-69
2021/08/19 03:53:02;;;;;;;7.05;5.15;;;17.50;97.40;;;;;;2079933;28;20026;-69
2021/08/19 03:54:03;;;;;;;5.22;4.72;;;17.60;97.30;;;;;;2079683;28;20060;-69
2021/08/19 03:55:05;;;;;;;6.10;5.00;;;17.50;97.30;;;;;;2079741;28;20017;-70
2021/08/19 03:56:06;;;;;;;5.28;4.78;;;17.50;97.20;;;;;;2079860;28;20149;-70
2021/08/19 03:57:07;;;;;;;6.82;4.82;;;17.50;97.00;;;;;;2088652;28;20032;-70
2021/08/19 03:58:08;;;;;;;7.15;4.80;;;17.50;97.10;;;;;;2088256;28;20528;-70
2021/08/19 03:59:09;;;;;;;6.43;4.65;;;17.60;97.20;;;;;;2088189;28;20037;-70
2021/08/19 04:00:10;;;;;;;5.57;4.80;;;17.60;97.10;;;;;;2088624;28;20051;-69
2021/08/19 04:01:14;;;;;;;5.22;4.35;;;17.60;97.20;;;;;;2088126;28;20036;-70
2021/08/19 04:02:14;;;;;;;5.63;4.65;;;17.60;97.10;;;;;;2088674;28;20392;-69
2021/08/19 04:03:15;;;;;;;5.13;4.60;;;17.60;97.20;;;;;;2088446;28;20091;-69
2021/08/19 04:04:15;;;;;;;5.30;4.30;;;17.60;97.30;;;;;;2088606;28;20024;-69
2021/08/19 04:05:16;;;;;;;4.80;4.40;;;17.60;97.20;;;;;;2088627;28;20063;-68
2021/08/19 04:06:17;;;;;;;5.03;4.22;;;17.60;97.20;;;;;;2079668;28;20125;-69
2021/08/19 04:07:18;;;;;;;5.18;4.28;;;17.60;97.10;;;;;;2079398;28;20034;-69
2021/08/19 04:08:18;;;;;;;5.88;4.80;;;17.60;97.10;;;;;;2088450;28;20111;-69
2021/08/19 04:09:19;;;;;;;5.40;4.63;;;17.60;97.10;;;;;;2088253;28;20033;-69
2021/08/19 04:10:20;;;;;;;5.70;4.97;;;17.60;97.10;;;;;;2088326;28;20420;-69
2021/08/19 04:11:21;;;;;;;5.30;4.80;;;17.60;97.10;;;;;;2088732;28;20115;-70
2021/08/19 04:12:21;;;;;;;6.35;4.72;;;17.60;97.20;;;;;;2088493;28;20470;-70
2021/08/19 04:13:22;;;;;;;5.05;4.57;;;17.60;97.00;;;;;;2088814;28;20025;-69
2021/08/19 04:14:22;;;;;;;5.22;4.72;;;17.60;97.00;;;;;;2083277;28;20021;-70
2021/08/19 04:15:23;;;;;;;5.03;4.53;;;17.50;97.10;;;;;;2088034;28;20033;-69
2021/08/19 04:16:24;;;;;;;5.18;4.68;;;17.50;97.20;;;;;;2095652;28;20084;-70
2021/08/19 04:17:24;;;;;;;7.53;4.57;;;17.60;97.10;;;;;;2097017;28;20081;-70
2021/08/19 04:18:25;;;;;;;5.97;4.95;;;17.60;97.40;;;;;;2096585;28;20037;-70
2021/08/19 04:19:25;;;;;;;5.50;4.63;;;17.60;97.30;;;;;;2096318;28;20452;-70
2021/08/19 04:20:26;;;;;;;6.72;4.65;;;17.60;97.70;;;;;;2093719;28;20033;-69
2021/08/19 04:21:26;;;;;;;5.78;4.63;;;17.60;97.60;;;;;;2092956;28;20072;-70
2021/08/19 04:22:27;;;;;;;5.28;4.57;;;17.60;97.50;;;;;;2090433;28;20120;-69
2021/08/19 04:23:28;;;;;;;7.45;4.60;;;17.60;97.50;;;;;;2088954;28;20055;-70
2021/08/19 04:24:29;;;;;;;5.25;4.60;;;17.60;97.40;;;;;;2089799;28;20040;-69
2021/08/19 04:25:29;;;;;;;5.10;4.30;;;17.50;97.50;;;;;;2089144;28;20499;-69
2021/08/19 04:26:30;;;;;;;4.45;4.05;;;17.60;97.60;;;;;;2088832;28;20063;-69
2021/08/19 04:27:30;;;;;;;4.20;3.80;;;17.60;97.60;;;;;;2088355;28;20914;-68
2021/08/19 04:28:31;;;;;;;5.70;4.53;;;17.60;97.70;;;;;;2088970;28;20041;-69
2021/08/19 04:29:33;;;;;;;5.07;4.30;;;17.60;97.80;;;;;;2088360;28;20036;-69
2021/08/19 04:30:34;;;;;;;4.90;4.40;;;17.60;97.70;;;;;;2089971;28;20020;-69
2021/08/19 04:31:34;;;;;;;5.13;4.60;;;17.60;97.70;;;;;;2081348;28;20090;-68
2021/08/19 04:32:35;;;;;;;5.88;4.57;;;17.60;97.70;;;;;;2065129;28;20018;-69
2021/08/19 04:33:36;;;;;;;5.03;4.55;;;17.60;97.90;;;;;;2065189;28;20394;-69
2021/08/19 04:34:36;;;;;;;5.43;4.45;;;17.60;97.80;;;;;;2081251;28;20030;-69
2021/08/19 04:35:39;;;;;;;5.65;4.63;;;17.60;97.80;;;;;;2081506;28;20527;-69
2021/08/19 04:36:39;;;;;;;6.03;4.47;;;17.60;97.90;;;;;;2082247;28;20477;-69
2021/08/19 04:37:40;;;;;;;4.45;4.00;;;17.60;97.90;;;;;;2091040;28;20035;-69
2021/08/19 04:38:41;;;;;;;5.45;4.40;;;17.60;97.90;;;;;;2090780;28;20041;-69
2021/08/19 04:39:41;;;;;;;5.75;4.07;;;17.60;97.90;;;;;;2091247;28;20071;-68
2021/08/19 04:40:42;;;;;;;4.63;4.22;;;17.70;98.00;;;;;;2091632;28;20058;-68
2021/08/19 04:41:43;;;;;;;6.55;4.30;;;17.70;98.00;;;;;;2092156;28;20143;-69
2021/08/19 04:42:43;;;;;;;6.60;4.32;;;17.70;97.90;;;;;;2090668;28;20049;-70
2021/08/19 04:43:44;;;;;;;6.45;4.25;;;17.70;97.80;;;;;;2090570;28;20025;-69
2021/08/19 04:44:45;;;;;;;4.72;4.30;;;17.70;97.90;;;;;;2090168;28;20025;-69
2021/08/19 04:45:45;;;;;;;6.35;4.85;;;17.70;98.00;;;;;;2090344;28;20748;-69
2021/08/19 04:46:46;;;;;;;5.13;4.60;;;17.70;97.90;;;;;;2081352;28;20059;-69
2021/08/19 04:47:46;;;;;;;5.07;4.20;;;17.70;97.90;;;;;;2080523;28;20061;-69
2021/08/19 04:48:47;;;;;;;4.95;4.32;;;17.70;97.90;;;;;;2089933;28;20017;-69
2021/08/19 04:49:47;;;;;;;4.60;4.13;;;17.70;98.00;;;;;;2080955;28;20026;-69
2021/08/19 04:50:48;;;;;;;5.55;4.20;;;17.70;98.00;;;;;;2081141;28;20069;-69
2021/08/19 04:51:49;;;;;;;5.15;4.15;;;17.70;97.80;;;;;;2089778;28;20025;-69
2021/08/19 04:52:49;;;;;;;4.72;4.32;;;17.70;98.00;;;;;;2089896;28;20079;-69
2021/08/19 04:53:50;;;;;;;5.30;4.38;;;17.80;97.90;;;;;;2090004;28;20434;-69
2021/08/19 04:54:50;;;;;;;4.90;4.40;;;17.80;97.80;;;;;;2080884;28;20029;-69
2021/08/19 04:55:51;;;;;;;5.70;4.30;;;17.80;97.60;;;;;;2072835;28;20041;-69
2021/08/19 04:56:52;;;;;;;6.70;4.40;;;17.70;97.40;;;;;;2081091;28;20465;-69
2021/08/19 04:57:52;;;;;;;4.70;4.20;;;17.80;97.40;;;;;;2089338;28;20028;-69
2021/08/19 04:58:53;;;;;;;4.20;3.80;;;17.80;97.50;;;;;;2089573;28;20448;-70
2021/08/19 04:59:54;;;;;;;4.65;4.22;;;17.80;97.30;;;;;;2089794;28;20171;-69
2021/08/19 05:00:55;;;;;;;4.40;4.00;;;17.80;97.10;;;;;;2089893;28;20025;-69
2021/08/19 05:01:55;;;;;;;4.25;3.85;;;17.80;97.00;;;;;;2080912;28;20030;-69
2021/08/19 05:02:56;;;;;;;5.63;4.10;;;17.80;97.00;;;;;;2080930;28;20413;-69
2021/08/19 05:03:59;;;;;;;4.45;4.05;;;17.80;97.10;;;;;;2090043;28;20033;-69
2021/08/19 05:04:59;;;;;;;4.30;3.90;;;17.80;97.20;;;;;;2089752;28;20017;-69
2021/08/19 05:06:00;;;;;;;7.60;4.10;;;17.80;97.10;;;;;;2089670;28;20078;-69
2021/08/19 05:07:00;;;;;;;5.28;4.03;;;17.80;97.40;;;;;;2080876;28;20080;-69
2021/08/19 05:08:01;;;;;;;9.15;7.70;;;17.90;97.30;;;;;;2080639;28;20057;-69
2021/08/19 05:09:04;;;;;;;6.45;5.85;;;17.90;97.30;;;;;;2089640;28;20128;-69
2021/08/19 05:10:05;;;;;;;6.28;4.60;;;17.90;97.20;;;;;;2080930;28;20033;-70
2021/08/19 05:11:06;;;;;;;4.65;4.20;;;17.90;97.10;;;;;;2080976;28;20392;-69
2021/08/19 05:12:06;;;;;;;4.68;3.70;;;17.90;96.70;;;;;;2089863;28;20017;-69
2021/08/19 05:13:07;;;;;;;7.90;4.18;;;17.90;96.70;;;;;;2089790;28;20384;-69
2021/08/19 05:14:08;;;;;;;5.45;4.30;;;17.90;97.10;;;;;;2089432;28;20037;-69
2021/08/19 05:15:09;;;;;;;4.50;3.88;;;17.90;96.80;;;;;;2089705;28;20032;-70
2021/08/19 05:16:10;;;;;;;5.70;4.25;;;17.90;96.60;;;;;;2089916;28;20522;-69
2021/08/19 05:17:10;;;;;;;4.20;3.80;;;17.80;96.40;;;;;;2089287;28;20028;-69
2021/08/19 05:18:11;;;;;;;6.75;4.28;;;17.80;96.40;;;;;;2072657;28;20056;-69